Terminal Aerodrome Forecast
Issued by NWS

Home | Current Version | Previous Version | Text Only | Print | Product List | Glossary On
Versions: 1 2 3 4 5 6 7 8 9 10 11 12 13 14 15 16 17 18 19 20 21 22
000
FTUS43 KGRR 232239 AAB
TAFMKG
TAF AMD
KMKG 232239Z 2323/2418 35011G18KT 5SM -RA BR SCT006 OVC025
      TEMPO 2323/2401 3SM -RA BR OVC006
     FM240100 32013G21KT 3SM -SHRA BR OVC015
     FM240900 28010KT 2SM -SHRA BR OVC008
     FM241500 29018G28KT 4SM -SHRA BR OVC012=

USA.gov is the U.S. government's official web portal to all federal, state and local government web resources and services.